Preston, OK

12:59 AM CDT on May 06, 2015 (GMT -0500)
Double S Ranch | | Change Station
CLOSE
Current Station
Personal Weather Station
Location: Beggs, OK
Elevation: 778 ft
Nearby Weather Stations

Elev 778 ft 35.79 °N, 96.07 °W | Updated 15 seconds ago

Overcast
Overcast
65.2 °F
Feels Like 65.2 °F
N
10.0
Wind Variable Wind from SE
Gusts 13.0 mph

Today
High -- | Low -- °F
--% Chance of Precip.
Yesterday
High -- | Low -- °F
Precip. -- in
6:26 AM 8:14 PM
Waning Gibbous, 95% visible
Pressure 29.97 in
Visibility 10.0 miles
Clouds Few 5500 ft
Overcast 8500 ft
Dew Point 62 °F
Humidity 91%
Rainfall 0.05 in
Snow Depth Not available.
UV 0 out of 12
Pollen 7.40 out of 12
Air Quality Not available.
Flu Activity Local Activity
METAR KRVS 060553Z 17010KT 10SM -RA FEW055 OVC085 20/17 A2996 RMK AO2 RAE06B52 SLP149 P0000 60027 T02000172 10239 20194 402720133 55009

More Conditions Fewer Conditions

Pressure 29.97 in
Visibility 10.0 miles
Clouds Few 5500 ft
Overcast 8500 ft
Dew Point 62 °F
Humidity 91%
Rainfall 0.05 in
Snow Depth Not available.
UV 0 out of 12
Pollen 7.40 out of 12
Air Quality Not available.
Flu Activity Local Activity
METAR KRVS 060553Z 17010KT 10SM -RA FEW055 OVC085 20/17 A2996 RMK AO2 RAE06B52 SLP149 P0000 60027 T02000172 10239 20194 402720133 55009

More Conditions Fewer Conditions

Nowcast | as of 11:26 PM CDT on May 5, 2015

At 11:26 PM...scattered showers and isolated thunderstorms were advancing northward at 30 mph across eastern Oklahoma. Most of the rain and isolated thunderstorms were occurring along and to the west of Highway 75. Through 1:00 am... showers and isolated thunderstorms are expected to continue becoming more numerous over eastern Oklahoma to the east of Highway 75 as well. Average hourly rainfall rates of several hundredths of an inch are anticipated... mainly west of Highway 75 and south of I 40. The strongest showers or thunderstorms however... may produce a tenth to over a quarter of an inch.

×

10-Day Weather Forecast

Almanac

Astronomy

May. 06, 2015 Rise Set
Actual Time
Civil Twilight
Nautical Twilight
Astronomical Twilight
Moon
Length of Visible Light
Length of Day
Tomorrow will be .
, % of the Moon is Illuminated

Today's Extremes

State Highs State Lows

Community

WunderPhotos

Upload Photos

1,818,842 photos uploaded!

WunderBlogs® & News

Nearby

Air Quality

  Air Quality AQ Index Pollutant
Not available.

Snow Depth

Station Depth Elevation

Earthquake Activity

City Distance Mag. Time & Date
Minimum magnitude displayed is 2.5.

Coastal Water Temperatures

Place Temperature

Stations

Nearby Weather Stations

Station Location Temp. Windchill Dew Point Humidity Wind Precip. Elev Updated Type